createdAt,value
2023-04-07T01:25:30.606Z,101509.64
2023-04-07T02:38:28.498Z,101543.05
2023-04-07T02:41:32.105Z,101542.08
2023-04-07T02:59:28.787Z,101543.16
2023-04-07T03:13:35.094Z,101552.67
2023-04-07T03:45:40.814Z,101551.77
2023-04-07T05:49:53.569Z,101637.35
2023-04-07T06:07:55.397Z,101661.46
2023-04-07T06:28:07.934Z,101682.34
2023-04-07T06:47:03.976Z,101690.54
2023-04-07T06:50:03.662Z,101685.81
2023-04-07T06:52:43.643Z,101686.30
2023-04-07T06:55:12.629Z,101689.33
2023-04-07T06:57:48.381Z,101687.59
2023-04-07T07:00:23.643Z,101688.80
2023-04-07T07:03:01.605Z,101688.55
2023-04-07T07:05:29.950Z,101693.89
2023-04-07T07:08:07.814Z,101696.88
2023-04-07T07:10:36.518Z,101691.55
2023-04-07T07:13:10.423Z,101691.09
2023-04-07T07:15:39.128Z,101692.84
2023-04-07T07:18:07.769Z,101697.37
2023-04-07T07:20:36.999Z,101699.81
2023-04-07T07:23:14.441Z,101702.23
2023-04-07T07:25:45.512Z,101706.73
2023-04-07T07:28:16.481Z,101712.34
2023-04-07T07:30:47.310Z,101715.67
2023-04-07T07:33:17.784Z,101716.84
2023-04-07T07:36:11.123Z,101717.32
2023-04-07T07:38:39.998Z,101719.63
2023-04-07T07:41:08.439Z,101719.06
2023-04-07T07:43:37.549Z,101725.44
2023-04-07T07:46:05.911Z,101721.83
2023-04-07T07:48:34.321Z,101727.76
2023-04-07T07:51:02.385Z,101736.45
2023-04-07T07:53:39.420Z,101737.10
2023-04-07T07:56:07.557Z,101741.67
2023-04-07T07:58:36.125Z,101742.81
2023-04-07T08:01:04.791Z,101742.30
2023-04-07T08:03:46.683Z,101750.32
2023-04-07T08:06:18.173Z,101747.39
2023-04-07T08:09:02.998Z,101748.33
2023-04-07T08:12:00.984Z,101749.13
2023-04-07T08:14:39.993Z,101746.66
2023-04-07T08:17:07.865Z,101748.50
2023-04-07T08:19:36.424Z,101744.75
2023-04-07T08:22:20.310Z,101741.92
2023-04-07T08:24:48.664Z,101744.89
2023-04-07T08:27:22.703Z,101746.95
2023-04-07T08:29:59.211Z,101746.40
2023-04-07T08:32:34.460Z,101747.48
2023-04-07T08:35:02.371Z,101745.87
2023-04-07T08:37:31.170Z,101751.41
2023-04-07T08:39:59.098Z,101751.92
2023-04-07T08:42:29.821Z,101756.10
2023-04-07T08:45:01.724Z,101758.54
2023-04-07T08:47:31.688Z,101756.23
2023-04-07T08:50:07.202Z,101761.16
2023-04-07T08:52:40.167Z,101763.51
2023-04-07T08:55:28.027Z,101762.48
2023-04-07T09:01:40.570Z,101763.77
2023-04-07T09:05:15.162Z,101760.42
2023-04-07T09:07:32.030Z,101759.23
2023-04-07T09:10:01.797Z,101758.56
2023-04-07T09:12:30.035Z,101759.62
2023-04-07T09:15:05.673Z,101758.18
2023-04-07T09:18:28.791Z,101760.52
2023-04-07T09:21:13.918Z,101758.61
2023-04-07T09:26:33.926Z,101757.02
2023-04-07T09:29:43.426Z,101755.38
2023-04-07T09:35:05.703Z,101757.75
2023-04-07T09:37:36.570Z,101758.66
2023-04-07T09:40:28.983Z,101758.26
2023-04-07T09:42:59.223Z,101758.86
2023-04-07T09:48:40.984Z,101752.16
2023-04-07T09:52:15.187Z,101750.27
2023-04-07T10:02:40.573Z,101748.29
2023-04-07T10:08:33.861Z,101746.67
2023-04-07T10:11:16.500Z,101744.10
2023-04-07T10:14:14.706Z,101735.40
2023-04-07T10:16:56.828Z,101740.27
2023-04-07T10:20:07.491Z,101741.09
2023-04-07T10:23:40.613Z,101741.67
2023-04-07T10:33:33.580Z,101742.97
2023-04-07T10:36:57.646Z,101739.75
2023-04-07T10:44:09.048Z,101738.78
2023-04-07T11:33:51.170Z,101717.08
2023-04-07T12:34:55.890Z,101723.59
2023-04-07T12:35:16.761Z,101726.96
2023-04-07T13:08:27.965Z,101736.14
2023-04-07T13:14:57.168Z,101736.58
2023-04-07T13:18:01.159Z,101735.68
2023-04-07T13:54:28.908Z,101712.71
2023-04-07T13:57:28.801Z,101715.03
2023-04-07T14:01:07.386Z,101712.83
2023-04-07T15:43:22.323Z,101676.67
